createdAt,value
2022-12-11T00:00:26.568Z,11.20
2022-12-11T00:02:31.342Z,11.10
2022-12-11T00:04:36.144Z,11.40
2022-12-11T00:06:40.836Z,12.70
2022-12-11T00:08:45.770Z,12.00
2022-12-11T00:10:50.761Z,11.30
2022-12-11T00:12:55.448Z,12.00
2022-12-11T00:15:00.217Z,12.30
2022-12-11T00:17:05.223Z,11.20
2022-12-11T00:19:12.475Z,11.30
2022-12-11T00:21:17.624Z,11.20
2022-12-11T00:23:23.113Z,10.70
2022-12-11T00:25:27.728Z,11.00
2022-12-11T00:27:32.605Z,11.40
2022-12-11T00:29:37.348Z,10.40
2022-12-11T00:31:42.310Z,11.40
2022-12-11T00:33:47.524Z,11.20
2022-12-11T00:35:52.170Z,11.10
2022-12-11T00:37:57.395Z,11.40
2022-12-11T00:40:02.146Z,10.90
2022-12-11T00:42:07.766Z,11.60
2022-12-11T00:44:12.443Z,11.20
2022-12-11T00:46:17.238Z,11.70
2022-12-11T00:48:22.654Z,10.00
2022-12-11T00:50:27.393Z,11.00
2022-12-11T00:52:32.035Z,10.40
2022-12-11T00:54:36.839Z,11.30
2022-12-11T00:56:41.526Z,10.40
2022-12-11T00:58:46.721Z,10.60
2022-12-11T01:00:51.537Z,9.90
2022-12-11T01:02:56.231Z,10.30
2022-12-11T01:05:00.987Z,10.70
2022-12-11T01:07:05.744Z,9.40
2022-12-11T01:09:10.381Z,11.40
2022-12-11T01:11:16.815Z,10.30
2022-12-11T01:13:21.717Z,10.60
2022-12-11T01:15:28.158Z,10.40
2022-12-11T01:17:32.957Z,9.70
2022-12-11T01:19:37.560Z,10.20
2022-12-11T01:21:42.233Z,9.80
2022-12-11T01:23:49.597Z,9.50
2022-12-11T01:25:54.335Z,9.90
2022-12-11T01:27:58.963Z,9.50
2022-12-11T01:30:04.026Z,10.80
2022-12-11T01:32:08.672Z,9.50
2022-12-11T01:34:13.895Z,10.50
2022-12-11T01:36:21.334Z,9.60
2022-12-11T01:38:29.115Z,10.20
2022-12-11T01:40:33.907Z,9.80
2022-12-11T01:42:38.999Z,10.20
2022-12-11T01:45:27.301Z,9.70
2022-12-11T01:47:32.151Z,9.70
2022-12-11T01:49:39.166Z,10.70
2022-12-11T01:51:49.224Z,9.80
2022-12-11T01:53:59.523Z,9.80
2022-12-11T01:56:04.789Z,9.00
2022-12-11T01:58:10.326Z,11.50
2022-12-11T02:00:16.897Z,9.60
2022-12-11T02:02:26.325Z,9.80
2022-12-11T02:04:31.841Z,9.50
2022-12-11T02:06:39.934Z,10.10
2022-12-11T02:08:44.596Z,9.20
2022-12-11T02:11:05.143Z,9.80
2022-12-11T02:13:16.580Z,9.70
2022-12-11T02:15:30.487Z,9.60
2022-12-11T02:17:40.765Z,9.50
2022-12-11T02:19:58.022Z,9.40
2022-12-11T02:22:09.020Z,9.80
2022-12-11T02:24:32.588Z,9.00
2022-12-11T02:26:54.204Z,8.80
2022-12-11T02:29:00.986Z,9.90
2022-12-11T02:31:12.223Z,10.10
2022-12-11T02:33:21.693Z,9.20
2022-12-11T02:35:30.406Z,9.30
2022-12-11T02:37:39.118Z,9.20
2022-12-11T02:39:45.989Z,9.40
2022-12-11T02:41:51.945Z,9.70
2022-12-11T02:43:58.661Z,8.80
2022-12-11T02:46:07.512Z,7.70
2022-12-11T02:48:14.247Z,9.00
2022-12-11T02:50:21.232Z,9.10
2022-12-11T02:52:28.345Z,8.70
2022-12-11T02:54:37.439Z,9.50
2022-12-11T02:56:46.464Z,9.30
2022-12-11T02:58:58.703Z,8.70
2022-12-11T03:01:03.690Z,8.70
2022-12-11T03:03:08.471Z,8.80
2022-12-11T03:05:14.593Z,7.60
2022-12-11T03:07:24.382Z,7.30
2022-12-11T03:09:29.178Z,8.00
2022-12-11T03:11:33.947Z,8.60
2022-12-11T03:13:39.252Z,8.10
2022-12-11T03:16:02.638Z,7.70
2022-12-11T03:18:15.603Z,7.60
2022-12-11T03:20:30.591Z,7.90
2022-12-11T03:22:40.768Z,7.60
2022-12-11T03:24:50.218Z,8.20
2022-12-11T03:27:00.973Z,7.10
2022-12-11T03:29:12.442Z,8.10
2022-12-11T03:31:22.300Z,7.40
2022-12-11T03:33:31.331Z,8.10
2022-12-11T03:35:38.951Z,7.80
2022-12-11T03:37:45.317Z,7.90
2022-12-11T03:39:52.874Z,8.40
2022-12-11T03:41:59.835Z,7.70
2022-12-11T03:44:05.200Z,9.00
2022-12-11T03:46:12.540Z,8.90
2022-12-11T03:48:18.773Z,8.70
2022-12-11T03:50:25.766Z,8.30
2022-12-11T03:52:32.040Z,8.50
2022-12-11T03:54:38.053Z,7.30
2022-12-11T03:56:45.219Z,8.70
2022-12-11T03:58:49.870Z,8.80
2022-12-11T04:00:54.565Z,8.00
2022-12-11T04:02:59.305Z,7.30
2022-12-11T04:05:04.188Z,8.00
2022-12-11T04:07:08.838Z,8.10
2022-12-11T04:09:13.560Z,8.20
2022-12-11T04:11:18.260Z,8.90
2022-12-11T04:13:23.038Z,9.60
2022-12-11T04:15:27.729Z,8.10
2022-12-11T04:17:34.163Z,8.10
2022-12-11T04:19:41.970Z,7.90
2022-12-11T04:21:46.670Z,8.00
2022-12-11T04:23:51.367Z,8.50
2022-12-11T04:26:02.947Z,8.10
2022-12-11T04:28:07.646Z,8.70
2022-12-11T04:30:15.638Z,7.90
2022-12-11T04:32:20.332Z,8.40
2022-12-11T04:34:25.030Z,7.50
2022-12-11T04:36:29.706Z,8.90
2022-12-11T04:38:34.746Z,7.90
2022-12-11T04:40:39.390Z,8.20
2022-12-11T04:42:44.619Z,8.30
2022-12-11T04:44:49.216Z,7.90
2022-12-11T04:46:53.862Z,9.10
2022-12-11T04:48:58.941Z,7.80
2022-12-11T04:51:03.958Z,8.50
2022-12-11T04:53:08.705Z,7.90
2022-12-11T04:55:13.931Z,8.10
2022-12-11T04:57:18.776Z,8.80
2022-12-11T04:59:23.513Z,8.30
2022-12-11T05:01:28.159Z,7.50
2022-12-11T05:03:32.838Z,7.50
2022-12-11T05:05:37.499Z,7.90
2022-12-11T05:07:42.551Z,7.70
2022-12-11T05:09:47.279Z,8.20
2022-12-11T05:11:51.885Z,7.50
2022-12-11T05:13:56.477Z,7.40
2022-12-11T05:16:03.362Z,7.10
2022-12-11T05:18:08.070Z,8.70
2022-12-11T05:20:13.283Z,7.20
2022-12-11T05:22:18.985Z,8.10
2022-12-11T05:24:23.659Z,8.30
2022-12-11T05:26:28.544Z,7.70
2022-12-11T05:28:35.849Z,7.30
2022-12-11T05:30:40.387Z,7.70
2022-12-11T05:32:44.999Z,7.80
2022-12-11T05:34:50.019Z,8.30
2022-12-11T05:36:54.592Z,8.90
2022-12-11T05:39:00.535Z,7.90
2022-12-11T05:41:06.696Z,8.80
2022-12-11T05:43:11.344Z,7.10
2022-12-11T05:45:15.989Z,8.10
2022-12-11T05:47:20.579Z,7.60
2022-12-11T05:49:30.675Z,7.90
2022-12-11T05:51:38.883Z,8.20
2022-12-11T05:53:44.441Z,8.20
2022-12-11T05:55:49.138Z,7.30
2022-12-11T05:57:53.715Z,7.50
2022-12-11T05:59:58.362Z,7.80
2022-12-11T06:02:03.066Z,8.10
2022-12-11T06:04:09.933Z,7.30
2022-12-11T06:06:15.674Z,7.70
2022-12-11T06:08:20.469Z,7.40
2022-12-11T06:10:25.104Z,8.10
2022-12-11T06:12:29.890Z,7.70
2022-12-11T06:14:34.622Z,7.40
2022-12-11T06:16:39.724Z,7.50
2022-12-11T06:18:45.627Z,6.60
2022-12-11T06:20:50.364Z,7.20
2022-12-11T06:22:54.997Z,7.60
2022-12-11T06:24:59.648Z,6.10
2022-12-11T06:27:04.326Z,7.10
2022-12-11T06:29:12.523Z,7.20
2022-12-11T06:31:18.697Z,8.00
2022-12-11T06:33:23.254Z,7.40
2022-12-11T06:35:27.913Z,6.80
2022-12-11T06:37:32.574Z,6.50
2022-12-11T06:39:37.183Z,6.10
2022-12-11T06:41:41.819Z,5.80
2022-12-11T06:43:46.603Z,7.40
2022-12-11T06:45:51.510Z,6.90
2022-12-11T06:47:56.179Z,5.10
2022-12-11T06:50:00.824Z,6.10
2022-12-11T06:52:06.932Z,6.80
2022-12-11T06:54:11.612Z,6.40
2022-12-11T06:56:16.814Z,5.60
2022-12-11T06:58:21.472Z,5.80
2022-12-11T07:00:26.138Z,6.40
2022-12-11T07:02:30.795Z,6.70
2022-12-11T07:04:35.550Z,5.80
2022-12-11T07:06:40.256Z,8.10
2022-12-11T07:08:44.846Z,5.30
2022-12-11T07:10:49.402Z,6.20
2022-12-11T07:12:55.570Z,5.50
2022-12-11T07:15:00.226Z,5.70
2022-12-11T07:17:04.822Z,6.80
2022-12-11T07:19:09.520Z,5.50
2022-12-11T07:21:15.175Z,6.50
2022-12-11T07:23:20.172Z,6.50
2022-12-11T07:25:24.899Z,6.60
2022-12-11T07:27:29.567Z,6.70
2022-12-11T07:29:34.521Z,6.40
2022-12-11T07:31:39.188Z,5.50
2022-12-11T07:33:44.680Z,6.60
2022-12-11T07:35:49.468Z,6.60
2022-12-11T07:37:54.135Z,5.90
2022-12-11T07:39:58.875Z,6.00
2022-12-11T07:42:03.648Z,6.60
2022-12-11T07:44:08.611Z,7.00
2022-12-11T07:46:16.022Z,5.20
2022-12-11T07:48:20.691Z,7.00
2022-12-11T07:50:25.387Z,6.20
2022-12-11T07:52:30.100Z,7.00
2022-12-11T07:54:34.720Z,6.40
2022-12-11T07:56:43.693Z,6.30
2022-12-11T07:58:49.609Z,6.20
2022-12-11T08:00:54.404Z,6.50
2022-12-11T08:02:59.941Z,6.50
2022-12-11T08:05:05.196Z,5.10
2022-12-11T08:07:09.810Z,5.90
2022-12-11T08:09:20.967Z,6.40
2022-12-11T08:11:26.525Z,6.70
2022-12-11T08:13:31.494Z,5.60
2022-12-11T08:15:36.922Z,6.20
2022-12-11T08:17:41.603Z,6.00
2022-12-11T08:19:49.213Z,6.30
2022-12-11T08:21:53.900Z,5.60
2022-12-11T08:23:58.668Z,6.30
2022-12-11T08:26:05.585Z,5.60
2022-12-11T08:28:10.186Z,6.00
2022-12-11T08:30:15.636Z,6.20
2022-12-11T08:32:20.520Z,5.90
2022-12-11T08:34:25.262Z,6.00
2022-12-11T08:36:30.312Z,6.00
2022-12-11T08:38:35.453Z,5.40
2022-12-11T08:40:40.185Z,5.70
2022-12-11T08:42:45.059Z,5.90
2022-12-11T08:44:49.751Z,5.40
2022-12-11T08:46:57.173Z,5.80
2022-12-11T08:49:01.833Z,5.50
2022-12-11T08:51:08.663Z,5.70
2022-12-11T08:53:13.360Z,5.70
2022-12-11T08:55:18.030Z,5.40
2022-12-11T08:57:24.106Z,6.50
2022-12-11T08:59:28.916Z,5.70
2022-12-11T09:01:33.632Z,4.90
2022-12-11T09:03:39.283Z,5.60
2022-12-11T09:05:44.725Z,5.90
2022-12-11T09:07:49.406Z,5.30
2022-12-11T09:09:55.651Z,6.00
2022-12-11T09:12:00.332Z,5.60
2022-12-11T09:14:08.008Z,5.20
2022-12-11T09:16:14.819Z,5.40
2022-12-11T09:18:19.502Z,5.10
2022-12-11T09:20:24.201Z,6.00
2022-12-11T09:22:29.061Z,5.70
2022-12-11T09:24:33.795Z,5.50
2022-12-11T09:26:38.707Z,6.50
2022-12-11T09:28:47.377Z,6.60
2022-12-11T09:30:52.777Z,5.70
2022-12-11T09:32:57.441Z,4.70
2022-12-11T09:35:02.069Z,6.40
2022-12-11T09:37:06.760Z,5.50
2022-12-11T09:39:13.628Z,5.40
2022-12-11T09:41:35.907Z,5.20
2022-12-11T09:43:46.562Z,5.30
2022-12-11T09:45:53.142Z,6.30
2022-12-11T09:47:58.429Z,5.40
2022-12-11T09:50:12.995Z,6.00
2022-12-11T09:52:24.455Z,5.40
2022-12-11T09:54:29.287Z,5.60
2022-12-11T09:56:39.309Z,6.00
2022-12-11T09:58:54.380Z,5.00
2022-12-11T10:01:03.272Z,5.00
2022-12-11T10:03:34.102Z,4.70
2022-12-11T10:05:47.213Z,5.40
2022-12-11T10:07:58.988Z,4.20
2022-12-11T10:10:16.656Z,5.60
2022-12-11T10:12:32.726Z,4.50
2022-12-11T10:14:49.698Z,4.90
2022-12-11T10:16:59.674Z,5.20
2022-12-11T10:19:05.027Z,4.40
2022-12-11T10:21:12.349Z,4.50
2022-12-11T10:23:22.337Z,4.20
2022-12-11T10:25:31.224Z,5.10
2022-12-11T10:27:38.867Z,4.50
2022-12-11T10:29:44.148Z,4.90
2022-12-11T10:31:55.742Z,4.10
2022-12-11T10:34:02.969Z,4.60
2022-12-11T10:36:13.228Z,5.00
2022-12-11T10:38:21.734Z,4.50
2022-12-11T10:40:29.210Z,4.30
2022-12-11T10:42:33.886Z,4.90
2022-12-11T10:44:38.928Z,4.60
2022-12-11T10:46:43.811Z,5.30
2022-12-11T10:48:50.540Z,5.00
2022-12-11T10:51:01.541Z,4.40
2022-12-11T10:53:06.841Z,4.50
2022-12-11T10:55:21.313Z,5.30
2022-12-11T10:57:31.289Z,5.00
2022-12-11T10:59:44.155Z,4.60
2022-12-11T11:01:49.595Z,4.40
2022-12-11T11:04:02.439Z,5.10
2022-12-11T11:06:15.314Z,5.40
2022-12-11T11:08:21.993Z,5.00
2022-12-11T11:10:26.751Z,5.00
2022-12-11T11:12:37.047Z,5.10
2022-12-11T11:14:41.753Z,5.00
2022-12-11T11:16:49.080Z,5.30
2022-12-11T11:18:55.750Z,4.60
2022-12-11T11:21:01.110Z,5.60
2022-12-11T11:23:14.890Z,5.40
2022-12-11T11:25:21.359Z,4.90
2022-12-11T11:27:34.148Z,5.10
2022-12-11T11:29:38.996Z,5.20
2022-12-11T11:31:43.684Z,5.40
2022-12-11T11:33:54.943Z,5.30
2022-12-11T11:36:01.539Z,5.10
2022-12-11T11:38:17.732Z,5.00
2022-12-11T11:40:27.123Z,5.20
2022-12-11T11:42:43.247Z,4.90
2022-12-11T11:44:57.671Z,4.80
2022-12-11T11:47:09.083Z,5.00
2022-12-11T11:49:21.594Z,5.90
2022-12-11T11:51:30.654Z,5.80
2022-12-11T11:53:38.927Z,5.00
2022-12-11T11:55:53.487Z,4.30
2022-12-11T11:58:02.823Z,4.60
2022-12-11T12:00:16.856Z,3.90
2022-12-11T12:02:22.097Z,4.10
2022-12-11T12:04:30.165Z,3.40
2022-12-11T12:06:52.436Z,4.60
2022-12-11T12:09:08.351Z,4.30
2022-12-11T12:11:22.569Z,4.30
2022-12-11T12:13:52.263Z,3.90
2022-12-11T12:15:59.369Z,4.10
2022-12-11T12:18:14.913Z,4.60
2022-12-11T12:20:28.261Z,4.50
2022-12-11T12:22:51.412Z,4.50
2022-12-11T12:25:06.877Z,4.10
2022-12-11T12:27:50.563Z,4.10
2022-12-11T12:29:56.030Z,3.60
2022-12-11T12:32:09.619Z,3.30
2022-12-11T12:34:26.019Z,5.00
2022-12-11T12:36:39.238Z,4.60
2022-12-11T12:38:53.976Z,4.70
2022-12-11T12:41:09.522Z,4.30
2022-12-11T12:43:30.276Z,4.60
2022-12-11T12:45:44.341Z,4.40
2022-12-11T12:47:53.548Z,4.30
2022-12-11T12:50:01.461Z,4.20
2022-12-11T12:52:12.548Z,4.00
2022-12-11T12:54:19.913Z,4.70
2022-12-11T12:56:27.419Z,5.20
2022-12-11T12:58:40.975Z,4.60
2022-12-11T13:00:46.241Z,4.00
2022-12-11T13:02:52.051Z,4.10
2022-12-11T13:05:02.889Z,3.90
2022-12-11T13:07:17.790Z,3.70
2022-12-11T13:09:24.380Z,4.30
2022-12-11T13:11:35.909Z,4.50
2022-12-11T13:13:43.377Z,4.80
2022-12-11T13:15:48.160Z,4.20
2022-12-11T13:17:53.128Z,4.50
2022-12-11T13:20:17.461Z,4.30
2022-12-11T13:22:25.274Z,4.20
2022-12-11T13:24:32.296Z,3.70
2022-12-11T13:26:37.226Z,5.30
2022-12-11T13:28:58.614Z,4.10
2022-12-11T13:31:31.966Z,4.50
2022-12-11T13:33:42.929Z,4.20
2022-12-11T13:35:48.020Z,3.80
2022-12-11T13:37:53.681Z,4.50
2022-12-11T13:39:59.106Z,4.80
2022-12-11T13:42:06.799Z,4.50
2022-12-11T13:44:22.347Z,4.30
2022-12-11T13:46:32.072Z,4.40
2022-12-11T13:48:40.961Z,4.50
2022-12-11T13:50:46.599Z,4.90
2022-12-11T13:53:00.279Z,5.20
2022-12-11T13:55:23.041Z,4.60
2022-12-11T13:57:28.248Z,4.70
2022-12-11T13:59:36.086Z,4.80
2022-12-11T14:01:41.773Z,4.80
2022-12-11T14:03:53.252Z,4.70
2022-12-11T14:05:58.375Z,4.50
2022-12-11T14:08:09.162Z,4.60
2022-12-11T14:10:21.205Z,5.20
2022-12-11T14:12:26.396Z,4.90
2022-12-11T14:14:40.397Z,4.20
2022-12-11T14:16:49.340Z,4.10
2022-12-11T14:19:03.526Z,4.20
2022-12-11T14:21:18.315Z,4.40
2022-12-11T14:23:25.569Z,4.00
2022-12-11T14:25:30.971Z,4.40
2022-12-11T14:27:36.844Z,4.10
2022-12-11T14:29:42.620Z,4.60
2022-12-11T14:31:47.823Z,4.20
2022-12-11T14:33:55.987Z,4.90
2022-12-11T14:36:03.324Z,4.30
2022-12-11T14:38:17.042Z,4.70
2022-12-11T14:40:28.574Z,5.10
2022-12-11T14:42:38.264Z,4.70
2022-12-11T14:44:50.547Z,4.60
2022-12-11T14:47:00.981Z,5.10
2022-12-11T14:49:16.919Z,4.80
2022-12-11T14:51:23.724Z,4.20
2022-12-11T14:53:33.810Z,4.60
2022-12-11T14:55:40.375Z,5.10
2022-12-11T14:57:47.700Z,4.90
2022-12-11T14:59:55.429Z,4.20
2022-12-11T15:02:03.367Z,4.40
2022-12-11T15:04:22.694Z,4.70
2022-12-11T15:06:30.287Z,4.90
2022-12-11T15:08:36.377Z,5.50
2022-12-11T15:10:57.795Z,4.90
2022-12-11T15:13:03.578Z,5.10
2022-12-11T15:15:17.882Z,5.00
2022-12-11T15:17:27.326Z,4.60
2022-12-11T15:19:34.902Z,4.50
2022-12-11T15:21:40.032Z,5.20
2022-12-11T15:23:53.110Z,5.70
2022-12-11T15:26:00.803Z,5.00
2022-12-11T15:28:06.249Z,4.90
2022-12-11T15:30:27.652Z,4.80
2022-12-11T15:32:32.520Z,4.90
2022-12-11T15:34:45.087Z,4.60
2022-12-11T15:36:49.993Z,5.10
2022-12-11T15:38:55.087Z,4.80
2022-12-11T15:41:01.410Z,5.00
2022-12-11T15:43:07.108Z,4.80
2022-12-11T15:45:18.517Z,4.50
2022-12-11T15:47:26.023Z,4.40
2022-12-11T15:49:30.981Z,4.20
2022-12-11T15:51:41.160Z,4.90
2022-12-11T15:53:48.018Z,4.00
2022-12-11T15:55:53.807Z,4.50
2022-12-11T15:58:02.260Z,4.90
2022-12-11T16:00:13.728Z,4.70
2022-12-11T16:02:20.292Z,5.90
2022-12-11T16:04:25.084Z,6.70
2022-12-11T16:06:29.928Z,6.10
2022-12-11T16:08:34.871Z,5.00
2022-12-11T16:10:40.333Z,5.10
2022-12-11T16:12:45.894Z,5.70
2022-12-11T16:14:51.137Z,4.90
2022-12-11T16:16:55.905Z,5.80
2022-12-11T16:19:01.051Z,5.10
2022-12-11T16:21:08.409Z,6.00
2022-12-11T16:23:14.366Z,5.60
2022-12-11T16:25:19.847Z,5.50
2022-12-11T16:27:25.983Z,6.00
2022-12-11T16:29:33.804Z,5.70
2022-12-11T16:31:39.159Z,5.60
2022-12-11T16:33:44.654Z,6.50
2022-12-11T16:35:49.804Z,6.70
2022-12-11T16:37:56.731Z,5.60
2022-12-11T16:40:01.498Z,5.40
2022-12-11T16:42:07.725Z,5.80
2022-12-11T16:44:13.620Z,6.10
2022-12-11T16:46:23.466Z,5.50
2022-12-11T16:48:29.335Z,6.40
2022-12-11T16:50:35.204Z,5.40
2022-12-11T16:52:40.624Z,5.50
2022-12-11T16:54:45.450Z,6.10
2022-12-11T16:56:50.786Z,7.10
2022-12-11T16:58:56.940Z,6.00
2022-12-11T17:01:02.386Z,6.60
2022-12-11T17:03:07.994Z,5.80
2022-12-11T17:05:14.277Z,6.20
2022-12-11T17:07:19.493Z,6.20
2022-12-11T17:09:24.862Z,6.00
2022-12-11T17:11:32.431Z,7.00
2022-12-11T17:13:37.156Z,6.80
2022-12-11T17:15:43.751Z,6.60
2022-12-11T17:17:52.122Z,5.80
2022-12-11T17:19:58.184Z,6.90
2022-12-11T17:22:03.307Z,6.80
2022-12-11T17:24:10.828Z,7.10
2022-12-11T17:26:19.111Z,7.70
2022-12-11T17:28:24.792Z,7.00
2022-12-11T17:30:31.378Z,7.10
2022-12-11T17:32:39.714Z,6.50
2022-12-11T17:34:46.056Z,7.40
2022-12-11T17:36:52.355Z,7.60
2022-12-11T17:38:57.823Z,8.20
2022-12-11T17:41:07.954Z,7.20
2022-12-11T17:43:14.048Z,8.20
2022-12-11T17:45:19.877Z,8.10
2022-12-11T17:47:26.491Z,7.90
2022-12-11T17:49:31.891Z,7.50
2022-12-11T17:51:37.616Z,9.20
2022-12-11T17:53:43.233Z,8.80
2022-12-11T17:55:49.058Z,8.50
2022-12-11T17:57:54.667Z,9.20
2022-12-11T17:59:59.612Z,10.40
2022-12-11T18:02:05.072Z,8.80
2022-12-11T18:04:11.093Z,8.50
2022-12-11T18:06:18.151Z,8.40
2022-12-11T18:08:26.803Z,9.20
2022-12-11T18:10:38.255Z,8.20
2022-12-11T18:12:44.373Z,8.10
2022-12-11T18:14:50.354Z,7.40
2022-12-11T18:16:55.780Z,8.40
2022-12-11T18:19:01.316Z,8.20
2022-12-11T18:21:07.416Z,8.60
2022-12-11T18:23:13.200Z,8.90
2022-12-11T18:25:22.255Z,8.90
2022-12-11T18:27:29.591Z,9.40
2022-12-11T18:29:35.940Z,9.10
2022-12-11T18:31:43.398Z,9.00
2022-12-11T18:33:49.368Z,9.70
2022-12-11T18:35:55.927Z,10.20
2022-12-11T18:38:06.219Z,9.90
2022-12-11T18:40:13.301Z,9.60
2022-12-11T18:42:37.948Z,9.40
2022-12-11T18:44:43.862Z,9.10
2022-12-11T18:46:53.862Z,8.20
2022-12-11T18:48:59.586Z,8.40
2022-12-11T18:51:10.058Z,8.70
2022-12-11T18:53:22.033Z,9.00
2022-12-11T18:55:27.550Z,9.20
2022-12-11T18:57:34.498Z,8.40
2022-12-11T18:59:40.851Z,9.70
2022-12-11T19:01:50.643Z,9.60
2022-12-11T19:04:03.485Z,13.30
2022-12-11T19:06:14.202Z,10.50
2022-12-11T19:08:22.028Z,12.10
2022-12-11T19:10:28.984Z,11.40
2022-12-11T19:12:34.699Z,10.20
2022-12-11T19:14:41.752Z,9.80
2022-12-11T19:16:48.066Z,10.70
2022-12-11T19:18:56.397Z,10.30
2022-12-11T19:21:08.726Z,11.00
2022-12-11T19:23:20.915Z,10.90
2022-12-11T19:25:27.174Z,9.90
2022-12-11T19:27:34.416Z,9.70
2022-12-11T19:29:40.773Z,10.30
2022-12-11T19:31:48.123Z,10.70
2022-12-11T19:33:56.937Z,10.80
2022-12-11T19:36:08.593Z,10.50
2022-12-11T19:38:15.039Z,10.70
2022-12-11T19:40:21.999Z,10.20
2022-12-11T19:42:31.253Z,9.80
2022-12-11T19:44:39.722Z,9.50
2022-12-11T19:46:46.514Z,9.70
2022-12-11T19:48:53.605Z,9.10
2022-12-11T19:51:06.312Z,9.70
2022-12-11T19:53:19.074Z,9.40
2022-12-11T19:55:33.317Z,11.30
2022-12-11T19:57:39.369Z,9.00
2022-12-11T19:59:45.182Z,9.10
2022-12-11T20:01:51.710Z,9.10
2022-12-11T20:03:59.571Z,9.00
2022-12-11T20:06:08.785Z,8.30
2022-12-11T20:08:43.692Z,8.70
2022-12-11T20:10:54.939Z,8.50
2022-12-11T20:13:01.433Z,8.50
2022-12-11T20:15:09.122Z,9.10
2022-12-11T20:17:15.105Z,7.90
2022-12-11T20:19:22.724Z,8.10
2022-12-11T20:21:29.707Z,9.10
2022-12-11T20:23:37.073Z,9.10
2022-12-11T20:25:59.048Z,9.90
2022-12-11T20:28:08.626Z,9.70
2022-12-11T20:30:18.550Z,9.40
2022-12-11T20:32:23.524Z,9.30
2022-12-11T20:34:29.458Z,8.30
2022-12-11T20:36:34.773Z,8.10
2022-12-11T20:38:41.716Z,9.20
2022-12-11T20:40:50.481Z,8.90
2022-12-11T20:42:57.154Z,8.60
2022-12-11T20:45:05.630Z,8.30
2022-12-11T20:47:12.151Z,8.70
2022-12-11T20:49:18.069Z,7.90
2022-12-11T20:51:26.359Z,8.60
2022-12-11T20:53:32.495Z,8.80
2022-12-11T20:55:41.233Z,8.60
2022-12-11T20:57:47.332Z,8.80
2022-12-11T20:59:53.011Z,8.00
2022-12-11T21:01:58.589Z,8.50
2022-12-11T21:04:08.230Z,8.50
2022-12-11T21:06:19.742Z,8.80
2022-12-11T21:08:24.905Z,8.80
2022-12-11T21:10:30.007Z,7.50
2022-12-11T21:12:35.895Z,8.50
2022-12-11T21:14:42.966Z,8.40
2022-12-11T21:16:50.155Z,9.00
2022-12-11T21:18:57.003Z,7.90
2022-12-11T21:21:02.746Z,8.90
2022-12-11T21:23:08.543Z,8.10
2022-12-11T21:25:14.091Z,8.50
2022-12-11T21:27:20.895Z,9.30
2022-12-11T21:29:27.167Z,7.90
2022-12-11T21:31:32.447Z,8.80
2022-12-11T21:33:38.302Z,8.10
2022-12-11T21:35:43.457Z,8.50
2022-12-11T21:37:48.352Z,9.00
2022-12-11T21:39:56.411Z,8.70
2022-12-11T21:42:01.976Z,8.00
2022-12-11T21:46:32.051Z,7.50
2022-12-11T21:48:37.523Z,8.30
2022-12-11T21:50:42.783Z,9.20
2022-12-11T21:52:47.509Z,9.60
2022-12-11T21:54:52.196Z,8.70
2022-12-11T21:56:56.889Z,8.00
2022-12-11T21:59:01.746Z,8.20
2022-12-11T22:01:11.053Z,8.30
2022-12-11T22:03:15.870Z,8.00
2022-12-11T22:05:20.589Z,8.30
2022-12-11T22:07:25.210Z,7.80
2022-12-11T22:09:29.775Z,7.90
2022-12-11T22:11:35.204Z,8.20
2022-12-11T22:13:39.984Z,7.70
2022-12-11T22:15:44.699Z,7.90
2022-12-11T22:17:49.346Z,8.20
2022-12-11T22:19:54.073Z,8.20
2022-12-11T22:21:58.657Z,8.00
2022-12-11T22:24:03.791Z,8.10
2022-12-11T22:26:09.463Z,7.30
2022-12-11T22:28:14.240Z,8.00
2022-12-11T22:30:19.184Z,7.70
2022-12-11T22:32:26.184Z,8.30
2022-12-11T22:34:30.992Z,8.30
2022-12-11T22:36:35.581Z,9.00
2022-12-11T22:38:40.306Z,8.80
2022-12-11T22:40:44.976Z,9.40
2022-12-11T22:42:49.664Z,8.20
2022-12-11T22:44:54.297Z,8.80
2022-12-11T22:46:58.887Z,8.00
2022-12-11T22:49:03.520Z,8.70
2022-12-11T22:51:08.913Z,8.20
2022-12-11T22:53:13.794Z,7.50
2022-12-11T22:55:18.679Z,7.60
2022-12-11T22:57:23.458Z,7.90
2022-12-11T22:59:28.068Z,7.50
2022-12-11T23:01:33.229Z,8.20
2022-12-11T23:03:38.046Z,7.90
2022-12-11T23:05:42.813Z,8.20
2022-12-11T23:07:47.653Z,7.20
2022-12-11T23:09:52.464Z,7.90
2022-12-11T23:11:57.165Z,7.50
2022-12-11T23:14:03.996Z,7.70
2022-12-11T23:16:09.159Z,7.90
2022-12-11T23:18:13.820Z,8.40
2022-12-11T23:20:18.596Z,7.80
2022-12-11T23:22:23.234Z,8.20
2022-12-11T23:24:27.927Z,8.10
2022-12-11T23:26:33.177Z,8.00
2022-12-11T23:28:38.251Z,7.80
2022-12-11T23:30:42.986Z,7.50
2022-12-11T23:32:47.641Z,8.00
2022-12-11T23:34:52.297Z,8.10
2022-12-11T23:36:57.055Z,8.70
2022-12-11T23:39:01.819Z,7.80
2022-12-11T23:41:08.134Z,7.90
2022-12-11T23:43:12.842Z,8.50
2022-12-11T23:45:17.569Z,8.10
2022-12-11T23:47:22.181Z,8.10
2022-12-11T23:49:26.862Z,7.90
2022-12-11T23:51:31.652Z,7.40
2022-12-11T23:53:36.303Z,8.00
2022-12-11T23:55:44.112Z,7.80
2022-12-11T23:57:48.752Z,7.80
2022-12-11T23:59:53.398Z,9.20
